createdAt,value
2018-10-18T00:00:14.867Z,54.27
2018-10-18T00:02:43.008Z,49.37
2018-10-18T00:05:11.187Z,51.60
2018-10-18T00:07:39.386Z,52.60
2018-10-18T00:10:08.182Z,50.20
2018-10-18T00:12:36.395Z,53.57
2018-10-18T00:15:04.812Z,52.07
2018-10-18T00:17:38.248Z,53.77
2018-10-18T00:20:06.751Z,50.50
2018-10-18T00:22:34.872Z,51.23
2018-10-18T00:25:03.047Z,52.40
2018-10-18T00:27:31.303Z,52.30
2018-10-18T00:29:59.523Z,48.53
2018-10-18T00:32:27.634Z,51.37
2018-10-18T00:34:55.837Z,56.40
2018-10-18T00:37:24.884Z,60.80
2018-10-18T00:39:53.059Z,55.67
2018-10-18T00:42:21.248Z,62.07
2018-10-18T00:44:49.425Z,57.80
2018-10-18T00:47:17.599Z,57.90
2018-10-18T00:49:45.795Z,58.10
2018-10-18T00:52:14.027Z,62.03
2018-10-18T00:54:42.207Z,62.33
2018-10-18T00:57:10.411Z,66.50
2018-10-18T00:59:38.619Z,65.20
2018-10-18T01:02:06.825Z,65.83
2018-10-18T01:04:34.994Z,67.40
2018-10-18T01:07:03.204Z,65.27
2018-10-18T01:09:31.392Z,67.80
2018-10-18T01:11:59.625Z,65.20
2018-10-18T01:14:27.736Z,67.90
2018-10-18T01:17:01.056Z,66.50
2018-10-18T01:19:29.271Z,72.67
2018-10-18T01:21:57.443Z,68.20
2018-10-18T01:24:25.685Z,75.37
2018-10-18T01:26:53.877Z,73.80
2018-10-18T01:29:22.089Z,74.67
2018-10-18T01:31:50.300Z,78.33
2018-10-18T01:34:18.484Z,75.63
2018-10-18T01:36:46.647Z,74.77
2018-10-18T01:39:14.816Z,81.50
2018-10-18T01:41:43.001Z,82.03
2018-10-18T01:44:11.265Z,75.07
2018-10-18T01:46:39.451Z,77.57
2018-10-18T01:49:07.865Z,76.93
2018-10-18T01:51:36.339Z,81.33
2018-10-18T01:54:04.532Z,80.87
2018-10-18T01:56:32.734Z,79.97
2018-10-18T01:59:00.942Z,79.97
2018-10-18T02:01:30.004Z,83.40
2018-10-18T02:03:58.231Z,83.47
2018-10-18T02:06:26.603Z,77.67
2018-10-18T02:08:54.811Z,83.40
2018-10-18T02:11:22.991Z,81.67
2018-10-18T02:13:51.158Z,80.53
2018-10-18T02:16:19.395Z,76.43
2018-10-18T02:18:47.632Z,76.47
2018-10-18T02:21:15.835Z,76.77
2018-10-18T02:23:44.026Z,75.87
2018-10-18T02:26:12.202Z,75.43
2018-10-18T02:28:40.406Z,76.93
2018-10-18T02:31:08.578Z,75.87
2018-10-18T02:33:36.776Z,76.13
2018-10-18T02:36:05.348Z,78.17
2018-10-18T02:38:33.526Z,80.87
2018-10-18T02:41:01.721Z,78.07
2018-10-18T02:43:29.900Z,87.27
2018-10-18T02:45:58.091Z,89.13
2018-10-18T02:48:26.267Z,92.30
2018-10-18T02:50:54.445Z,95.10
2018-10-18T02:53:22.641Z,90.97
2018-10-18T02:55:50.827Z,97.40
2018-10-18T02:58:18.996Z,97.47
2018-10-18T03:00:47.200Z,102.43
2018-10-18T03:03:15.375Z,103.17
2018-10-18T03:05:43.630Z,104.10
2018-10-18T03:08:11.792Z,100.13
2018-10-18T03:10:39.982Z,103.87
2018-10-18T03:13:08.167Z,104.10
2018-10-18T03:15:36.355Z,105.17
2018-10-18T03:18:04.999Z,102.60
2018-10-18T03:20:33.195Z,101.60
2018-10-18T03:23:01.387Z,104.23
2018-10-18T03:25:29.581Z,104.47
2018-10-18T03:27:57.779Z,106.00
2018-10-18T03:30:25.972Z,101.17
2018-10-18T03:32:54.178Z,99.53
2018-10-18T03:35:22.373Z,99.43
2018-10-18T03:37:50.552Z,97.30
2018-10-18T03:40:18.753Z,105.20
2018-10-18T03:42:46.930Z,98.33
2018-10-18T03:45:15.114Z,103.60
2018-10-18T03:47:43.316Z,100.50
2018-10-18T03:50:11.519Z,102.93
2018-10-18T03:52:39.730Z,102.90
2018-10-18T03:55:07.957Z,99.90
2018-10-18T03:57:36.149Z,102.87
2018-10-18T04:00:04.379Z,102.40
2018-10-18T04:02:32.546Z,97.83
2018-10-18T04:05:00.733Z,100.17
2018-10-18T04:07:28.909Z,98.17
2018-10-18T04:09:57.099Z,97.83
2018-10-18T04:12:25.345Z,96.73
2018-10-18T04:14:53.484Z,96.80
2018-10-18T04:17:21.675Z,96.37
2018-10-18T04:19:49.875Z,93.87
2018-10-18T04:22:18.082Z,96.97
2018-10-18T04:24:46.267Z,87.83
2018-10-18T04:27:14.467Z,86.63
2018-10-18T04:29:42.645Z,84.43
2018-10-18T04:32:10.869Z,81.00
2018-10-18T04:34:39.070Z,79.80
2018-10-18T04:37:07.375Z,79.27
2018-10-18T04:39:35.584Z,75.60
2018-10-18T04:42:03.940Z,77.70
2018-10-18T04:44:32.063Z,73.50
2018-10-18T04:47:00.301Z,72.73
2018-10-18T04:49:28.445Z,70.53
2018-10-18T04:51:56.646Z,68.23
2018-10-18T04:54:24.860Z,71.60
2018-10-18T04:56:53.233Z,67.07
2018-10-18T04:59:21.308Z,68.13
2018-10-18T05:01:49.518Z,64.83
2018-10-18T05:04:17.715Z,68.47
2018-10-18T05:06:45.903Z,62.20
2018-10-18T05:09:14.119Z,58.20
2018-10-18T05:11:42.334Z,60.03
2018-10-18T05:14:10.478Z,60.70
2018-10-18T05:16:38.683Z,61.07
2018-10-18T05:19:06.982Z,69.63
2018-10-18T05:21:35.152Z,77.53
2018-10-18T05:24:04.820Z,71.80
2018-10-18T05:26:32.982Z,72.47
2018-10-18T05:29:01.163Z,69.53
2018-10-18T05:31:29.394Z,71.57
2018-10-18T05:33:57.532Z,69.10
2018-10-18T05:36:25.721Z,67.80
2018-10-18T05:38:53.901Z,69.67
2018-10-18T05:41:22.074Z,68.67
2018-10-18T05:43:51.315Z,64.40
2018-10-18T05:46:19.486Z,66.17
2018-10-18T05:48:49.504Z,61.80
2018-10-18T05:51:17.705Z,62.33
2018-10-18T05:53:47.003Z,63.93
2018-10-18T05:56:15.159Z,62.93
2018-10-18T05:58:43.727Z,59.33
2018-10-18T06:01:12.029Z,66.40
2018-10-18T06:03:41.930Z,67.17
2018-10-18T06:06:10.135Z,58.53
2018-10-18T06:08:39.823Z,58.07
2018-10-18T06:11:22.408Z,57.83
2018-10-18T06:13:51.014Z,57.30
2018-10-18T06:16:20.187Z,57.97
2018-10-18T06:18:48.472Z,58.90
2018-10-18T06:21:16.671Z,60.40
2018-10-18T06:23:44.968Z,57.10
2018-10-18T06:26:13.164Z,58.80
2018-10-18T06:28:41.352Z,61.37
2018-10-18T06:31:09.699Z,60.73
2018-10-18T06:33:37.812Z,59.43
2018-10-18T06:36:06.057Z,58.50
2018-10-18T06:38:34.259Z,59.07
2018-10-18T06:41:02.554Z,57.80
2018-10-18T06:43:34.912Z,55.80
2018-10-18T06:46:03.107Z,57.47
2018-10-18T06:48:31.341Z,60.77
2018-10-18T06:50:59.540Z,56.70
2018-10-18T06:53:27.735Z,56.90
2018-10-18T06:55:56.084Z,56.07
2018-10-18T06:58:24.256Z,54.53
2018-10-18T07:00:52.650Z,55.33
2018-10-18T07:03:20.908Z,54.20
2018-10-18T07:05:49.129Z,55.47
2018-10-18T07:08:17.296Z,51.83
2018-10-18T07:10:45.504Z,52.97
2018-10-18T07:13:13.666Z,50.90
2018-10-18T07:15:41.873Z,53.93
2018-10-18T07:18:10.330Z,50.67
2018-10-18T07:20:38.308Z,52.90
2018-10-18T07:23:06.674Z,51.27
2018-10-18T07:25:34.884Z,47.97
2018-10-18T07:28:03.075Z,53.43
2018-10-18T07:30:31.413Z,51.87
2018-10-18T07:32:59.595Z,53.17
2018-10-18T07:35:27.791Z,49.90
2018-10-18T07:37:55.983Z,48.97
2018-10-18T07:40:24.183Z,50.97
2018-10-18T07:42:53.375Z,49.60
2018-10-18T07:45:22.769Z,48.27
2018-10-18T07:47:50.942Z,48.40
2018-10-18T07:50:19.150Z,52.33
2018-10-18T07:52:47.382Z,47.80
2018-10-18T07:55:15.555Z,50.90
2018-10-18T07:57:43.751Z,52.67
2018-10-18T08:00:17.833Z,48.93
2018-10-18T08:02:46.095Z,48.47
2018-10-18T08:05:14.779Z,50.33
2018-10-18T08:07:43.012Z,48.00
2018-10-18T08:10:14.616Z,50.67
2018-10-18T08:12:42.839Z,49.93
2018-10-18T08:15:13.112Z,50.30
2018-10-18T08:17:42.009Z,50.87
2018-10-18T08:20:11.100Z,48.83
2018-10-18T08:22:39.754Z,49.47
2018-10-18T08:25:07.967Z,48.20
2018-10-18T08:27:37.563Z,50.17
2018-10-18T08:30:08.422Z,45.87
2018-10-18T08:32:36.667Z,45.43
2018-10-18T08:35:05.327Z,46.93
2018-10-18T08:37:33.858Z,49.40
2018-10-18T08:40:02.113Z,47.03
2018-10-18T08:42:30.386Z,48.37
2018-10-18T08:44:58.578Z,47.10
2018-10-18T08:47:26.834Z,45.37
2018-10-18T08:49:55.073Z,40.43
2018-10-18T08:52:23.261Z,36.20
2018-10-18T08:54:51.472Z,36.70
2018-10-18T08:57:19.725Z,34.23
2018-10-18T08:59:47.936Z,32.17
2018-10-18T09:02:16.123Z,34.73
2018-10-18T09:04:44.447Z,33.67
2018-10-18T09:07:12.828Z,32.67
2018-10-18T09:09:40.963Z,33.97
2018-10-18T09:12:09.147Z,34.50
2018-10-18T09:14:37.417Z,33.97
2018-10-18T09:17:05.651Z,35.57
2018-10-18T09:19:33.870Z,37.10
2018-10-18T09:22:02.115Z,34.70
2018-10-18T09:24:30.304Z,35.97
2018-10-18T09:26:58.502Z,36.10
2018-10-18T09:29:26.990Z,34.50
2018-10-18T09:31:55.199Z,35.53
2018-10-18T09:34:23.391Z,34.60
2018-10-18T09:36:51.604Z,33.90
2018-10-18T09:39:19.800Z,35.17
2018-10-18T09:41:48.239Z,34.00
2018-10-18T09:44:16.543Z,33.60
2018-10-18T09:46:44.663Z,32.53
2018-10-18T09:49:12.933Z,34.33
2018-10-18T09:51:41.062Z,33.37
2018-10-18T09:54:09.268Z,32.80
2018-10-18T09:56:37.468Z,33.27
2018-10-18T09:59:06.018Z,30.80
2018-10-18T10:01:39.451Z,31.50
2018-10-18T10:04:07.694Z,30.20
2018-10-18T10:06:35.853Z,32.90
2018-10-18T10:09:04.394Z,31.77
2018-10-18T10:11:32.643Z,32.47
2018-10-18T10:14:00.780Z,34.40
2018-10-18T10:16:28.979Z,34.10
2018-10-18T10:18:57.218Z,33.10
2018-10-18T10:21:25.418Z,33.80
2018-10-18T10:23:53.603Z,34.80
2018-10-18T10:26:21.839Z,34.90
2018-10-18T10:28:50.048Z,32.87
2018-10-18T10:31:18.290Z,37.90
2018-10-18T10:33:46.426Z,37.43
2018-10-18T10:36:14.611Z,39.47
2018-10-18T10:38:42.803Z,40.70
2018-10-18T10:41:11.097Z,41.20
2018-10-18T10:43:39.199Z,44.93
2018-10-18T10:46:07.468Z,43.60
2018-10-18T10:48:35.627Z,45.67
2018-10-18T10:51:03.865Z,42.47
2018-10-18T10:53:32.101Z,41.93
2018-10-18T10:56:00.303Z,43.77
2018-10-18T10:58:28.549Z,43.13
2018-10-18T11:01:17.048Z,40.37
2018-10-18T11:03:45.529Z,40.90
2018-10-18T11:06:14.090Z,39.80
2018-10-18T11:08:42.215Z,44.20
2018-10-18T11:11:10.974Z,42.00
2018-10-18T11:13:39.160Z,40.77
2018-10-18T11:16:07.727Z,42.87
2018-10-18T11:18:36.955Z,42.87
2018-10-18T11:21:07.556Z,39.10
2018-10-18T11:23:36.439Z,39.40
2018-10-18T11:26:05.265Z,36.73
2018-10-18T11:28:34.446Z,35.33
2018-10-18T11:31:03.263Z,33.00
2018-10-18T11:33:32.051Z,34.87
2018-10-18T11:36:00.446Z,37.27
2018-10-18T11:38:29.231Z,37.23
2018-10-18T11:40:57.728Z,36.70
2018-10-18T11:43:26.033Z,36.37
2018-10-18T11:45:54.238Z,35.53
2018-10-18T11:48:22.473Z,38.10
2018-10-18T11:50:50.685Z,35.30
2018-10-18T11:53:18.895Z,34.30
2018-10-18T11:55:47.123Z,36.60
2018-10-18T11:58:15.525Z,35.17
2018-10-18T12:00:43.717Z,38.23
2018-10-18T12:03:11.935Z,34.43
2018-10-18T12:05:40.143Z,34.60
2018-10-18T12:08:08.451Z,33.67
2018-10-18T12:10:36.555Z,33.47
2018-10-18T12:13:04.829Z,33.03
2018-10-18T12:15:33.039Z,32.43
2018-10-18T12:18:01.251Z,32.27
2018-10-18T12:20:29.467Z,32.80
2018-10-18T12:22:57.662Z,28.17
2018-10-18T12:25:25.868Z,28.60
2018-10-18T12:27:54.095Z,23.80
2018-10-18T12:30:22.295Z,24.07
2018-10-18T12:32:50.495Z,24.00
2018-10-18T12:35:18.772Z,22.70
2018-10-18T12:37:46.943Z,25.17
2018-10-18T12:40:15.206Z,25.00
2018-10-18T12:42:45.302Z,25.57
2018-10-18T12:45:13.704Z,24.47
2018-10-18T12:47:42.885Z,23.80
2018-10-18T12:50:11.115Z,23.93
2018-10-18T12:52:39.291Z,24.20
2018-10-18T12:55:07.512Z,22.20
2018-10-18T12:57:35.708Z,23.17
2018-10-18T13:00:04.183Z,20.93
2018-10-18T13:02:32.492Z,21.20
2018-10-18T13:05:00.587Z,23.80
2018-10-18T13:07:28.759Z,23.30
2018-10-18T13:09:57.045Z,21.60
2018-10-18T13:12:25.400Z,20.90
2018-10-18T13:14:53.431Z,24.27
2018-10-18T13:17:21.619Z,22.80
2018-10-18T13:19:49.814Z,22.83
2018-10-18T13:22:18.002Z,23.00
2018-10-18T13:24:46.285Z,21.50
2018-10-18T13:27:14.567Z,22.90
2018-10-18T13:29:42.783Z,21.23
2018-10-18T13:32:11.120Z,21.43
2018-10-18T13:34:39.259Z,22.77
2018-10-18T13:37:07.715Z,21.20
2018-10-18T13:39:36.016Z,22.10
2018-10-18T13:42:04.653Z,23.23
2018-10-18T13:44:33.869Z,22.53
2018-10-18T13:47:02.062Z,21.70
2018-10-18T13:49:31.030Z,20.50
2018-10-18T13:51:59.247Z,16.40
2018-10-18T13:54:28.124Z,15.47
2018-10-18T13:56:56.460Z,12.80
2018-10-18T13:59:36.035Z,12.13
2018-10-18T14:02:04.808Z,12.03
2018-10-18T14:04:34.009Z,11.13
2018-10-18T14:07:02.301Z,11.23
2018-10-18T14:09:31.636Z,13.13
2018-10-18T14:11:59.968Z,13.40
2018-10-18T14:14:28.250Z,12.20
2018-10-18T14:16:56.539Z,12.43
2018-10-18T14:19:24.764Z,10.90
2018-10-18T14:21:54.623Z,11.30
2018-10-18T14:24:23.763Z,8.93
2018-10-18T14:26:53.271Z,8.20
2018-10-18T14:29:24.477Z,8.50
2018-10-18T14:31:52.936Z,8.10
2018-10-18T14:34:21.271Z,9.00
2018-10-18T14:36:50.595Z,8.47
2018-10-18T14:39:19.727Z,7.83
2018-10-18T14:41:48.084Z,8.40
2018-10-18T14:44:18.317Z,8.23
2018-10-18T14:46:46.472Z,7.67
2018-10-18T14:49:16.390Z,7.80
2018-10-18T14:51:44.648Z,6.93
2018-10-18T14:54:12.934Z,7.10
2018-10-18T14:56:41.123Z,7.33
2018-10-18T14:59:14.147Z,7.30
2018-10-18T15:01:43.031Z,8.07
2018-10-18T15:04:12.670Z,8.43
2018-10-18T15:06:42.095Z,8.70
2018-10-18T15:09:11.456Z,8.70
2018-10-18T15:11:39.702Z,7.80
2018-10-18T15:14:08.161Z,7.73
2018-10-18T15:16:36.335Z,7.30
2018-10-18T15:19:04.533Z,7.23
2018-10-18T15:21:32.720Z,7.50
2018-10-18T15:24:00.938Z,6.80
2018-10-18T15:26:29.357Z,6.73
2018-10-18T15:28:57.419Z,6.90
2018-10-18T15:31:25.616Z,7.00
2018-10-18T15:33:53.920Z,7.10
2018-10-18T15:36:22.091Z,7.03
2018-10-18T15:38:50.472Z,7.40
2018-10-18T15:41:18.565Z,7.77
2018-10-18T15:43:46.753Z,6.87
2018-10-18T15:46:15.921Z,7.07
2018-10-18T15:48:44.183Z,6.80
2018-10-18T15:51:12.571Z,7.67
2018-10-18T15:53:42.581Z,8.40
2018-10-18T15:56:10.663Z,8.53
2018-10-18T15:58:40.432Z,9.10
2018-10-18T16:01:08.824Z,9.27
2018-10-18T16:03:37.468Z,9.17
2018-10-18T16:06:05.879Z,10.43
2018-10-18T16:08:34.092Z,9.87
2018-10-18T16:11:03.027Z,10.00
2018-10-18T16:13:32.263Z,10.00
2018-10-18T16:16:00.900Z,10.37
2018-10-18T16:18:29.307Z,10.80
2018-10-18T16:20:58.379Z,10.67
2018-10-18T16:23:27.978Z,11.23
2018-10-18T16:25:58.011Z,11.30
2018-10-18T16:28:26.367Z,10.20
2018-10-18T16:30:54.623Z,10.50
2018-10-18T16:33:22.886Z,10.30
2018-10-18T16:35:52.231Z,12.30
2018-10-18T16:38:20.606Z,12.07
2018-10-18T16:40:49.663Z,11.97
2018-10-18T16:43:17.879Z,12.37
2018-10-18T16:45:46.101Z,12.80
2018-10-18T16:48:14.501Z,13.87
2018-10-18T16:50:44.340Z,13.70
2018-10-18T16:53:12.570Z,14.40
2018-10-18T16:55:40.877Z,14.00
2018-10-18T16:58:09.223Z,15.10
2018-10-18T17:00:37.547Z,14.90
2018-10-18T17:03:05.891Z,14.03
2018-10-18T17:05:34.290Z,14.90
2018-10-18T17:08:02.688Z,14.30
2018-10-18T17:10:30.931Z,12.57
2018-10-18T17:13:00.175Z,12.13
2018-10-18T17:15:28.695Z,12.20
2018-10-18T17:17:57.063Z,10.87
2018-10-18T17:20:25.467Z,10.43
2018-10-18T17:22:53.488Z,9.83
2018-10-18T17:25:21.685Z,10.40
2018-10-18T17:27:50.051Z,10.00
2018-10-18T17:30:18.185Z,9.67
2018-10-18T17:32:46.653Z,9.50
2018-10-18T17:35:14.839Z,10.20
2018-10-18T17:37:43.051Z,10.20
2018-10-18T17:40:11.313Z,10.03
2018-10-18T17:42:39.450Z,9.97
2018-10-18T17:45:09.097Z,10.77
2018-10-18T17:47:37.312Z,11.73
2018-10-18T17:50:06.168Z,10.73
2018-10-18T17:52:34.884Z,10.53
2018-10-18T17:55:03.235Z,11.00
2018-10-18T17:57:31.695Z,11.30
2018-10-18T17:59:59.981Z,11.30
2018-10-18T18:02:28.177Z,12.00
2018-10-18T18:04:56.442Z,13.00
2018-10-18T18:07:24.708Z,13.77
2018-10-18T18:09:52.967Z,13.03
2018-10-18T18:12:21.195Z,14.23
2018-10-18T18:14:49.419Z,14.60
2018-10-18T18:17:17.689Z,15.47
2018-10-18T18:19:45.918Z,15.63
2018-10-18T18:22:14.158Z,15.77
2018-10-18T18:24:43.443Z,16.63
2018-10-18T18:27:11.710Z,17.83
2018-10-18T18:29:39.836Z,17.17
2018-10-18T18:32:08.066Z,18.80
2018-10-18T18:34:36.272Z,19.27
2018-10-18T18:37:04.484Z,20.17
2018-10-18T18:39:32.675Z,19.27
2018-10-18T18:42:00.891Z,21.20
2018-10-18T18:44:29.056Z,21.97
2018-10-18T18:46:57.264Z,22.30
2018-10-18T18:49:25.431Z,24.40
2018-10-18T18:51:53.627Z,23.87
2018-10-18T18:54:21.834Z,25.50
2018-10-18T18:56:50.027Z,25.40
2018-10-18T18:59:18.209Z,27.00
2018-10-18T19:01:46.396Z,25.60
2018-10-18T19:04:14.608Z,27.23
2018-10-18T19:06:42.839Z,27.60
2018-10-18T19:09:11.103Z,26.20
2018-10-18T19:11:39.850Z,24.63
2018-10-18T19:14:09.268Z,25.57
2018-10-18T19:16:37.512Z,23.53
2018-10-18T19:19:06.040Z,23.87
2018-10-18T19:21:36.482Z,24.50
2018-10-18T19:24:05.875Z,23.37
2018-10-18T19:26:34.132Z,24.03
2018-10-18T19:29:02.367Z,23.73
2018-10-18T19:31:30.591Z,22.80
2018-10-18T19:33:59.857Z,22.23
2018-10-18T19:36:28.992Z,24.17
2018-10-18T19:38:57.177Z,23.60
2018-10-18T19:41:26.168Z,23.90
2018-10-18T19:43:54.511Z,22.23
2018-10-18T19:46:24.027Z,22.10
2018-10-18T19:48:52.982Z,23.93
2018-10-18T19:51:21.236Z,23.37
2018-10-18T19:53:49.509Z,24.90
2018-10-18T19:56:17.760Z,22.97
2018-10-18T19:58:46.202Z,23.60
2018-10-18T20:01:14.472Z,24.10
2018-10-18T20:03:42.730Z,23.03
2018-10-18T20:06:11.005Z,24.80
2018-10-18T20:08:39.328Z,25.13
2018-10-18T20:11:08.149Z,24.23
2018-10-18T20:13:36.395Z,25.30
2018-10-18T20:16:05.295Z,25.40
2018-10-18T20:18:34.476Z,25.97
2018-10-18T20:21:02.760Z,25.70
2018-10-18T20:23:30.907Z,24.50
2018-10-18T20:25:59.970Z,26.13
2018-10-18T20:28:28.596Z,26.17
2018-10-18T20:30:56.995Z,25.13
2018-10-18T20:33:25.179Z,23.67
2018-10-18T20:35:53.365Z,25.27
2018-10-18T20:38:21.572Z,25.00
2018-10-18T20:40:49.752Z,26.37
2018-10-18T20:43:17.939Z,26.57
2018-10-18T20:45:46.159Z,25.23
2018-10-18T20:48:14.410Z,25.00
2018-10-18T20:50:42.550Z,26.27
2018-10-18T20:53:10.821Z,26.30
2018-10-18T20:55:38.938Z,24.83
2018-10-18T20:58:07.117Z,25.57
2018-10-18T21:00:35.335Z,26.10
2018-10-18T21:03:03.548Z,25.77
2018-10-18T21:05:31.724Z,24.87
2018-10-18T21:07:59.918Z,25.00
2018-10-18T21:10:28.094Z,25.93
2018-10-18T21:12:56.289Z,27.03
2018-10-18T21:15:24.472Z,26.10
2018-10-18T21:17:52.688Z,27.00
2018-10-18T21:20:20.862Z,26.87
2018-10-18T21:22:49.067Z,26.80
2018-10-18T21:25:17.268Z,27.47
2018-10-18T21:27:45.529Z,26.50
2018-10-18T21:30:13.679Z,28.97
2018-10-18T21:32:41.870Z,26.77
2018-10-18T21:35:10.148Z,27.03
2018-10-18T21:37:38.276Z,26.30
2018-10-18T21:40:06.472Z,26.13
2018-10-18T21:42:34.667Z,26.80
2018-10-18T21:45:03.801Z,26.97
2018-10-18T21:47:32.068Z,26.30
2018-10-18T21:50:00.255Z,24.90
2018-10-18T21:52:28.443Z,25.53
2018-10-18T21:54:56.639Z,25.23
2018-10-18T21:57:24.819Z,23.80
2018-10-18T21:59:53.015Z,27.00
2018-10-18T22:02:21.188Z,23.97
2018-10-18T22:04:49.390Z,24.90
2018-10-18T22:07:17.592Z,23.07
2018-10-18T22:09:45.807Z,23.27
2018-10-18T22:12:14.036Z,24.50
2018-10-18T22:14:42.232Z,23.50
2018-10-18T22:17:10.444Z,23.43
2018-10-18T22:19:38.607Z,24.43
2018-10-18T22:22:06.799Z,23.53
2018-10-18T22:24:34.987Z,24.20
2018-10-18T22:27:03.238Z,23.63
2018-10-18T22:29:31.404Z,23.50
2018-10-18T22:31:59.587Z,25.27
2018-10-18T22:34:27.788Z,24.67
2018-10-18T22:36:55.991Z,23.37
2018-10-18T22:39:24.188Z,23.20
2018-10-18T22:41:52.366Z,23.57
2018-10-18T22:44:20.538Z,23.40
2018-10-18T22:46:48.727Z,21.37
2018-10-18T22:49:16.953Z,22.20
2018-10-18T22:51:45.165Z,22.40
2018-10-18T22:54:13.346Z,23.70
2018-10-18T22:56:41.518Z,23.30
2018-10-18T22:59:09.761Z,20.57
2018-10-18T23:01:37.871Z,22.77
2018-10-18T23:04:06.089Z,20.77
2018-10-18T23:06:34.264Z,21.00
2018-10-18T23:09:02.484Z,21.63
2018-10-18T23:11:30.647Z,22.07
2018-10-18T23:13:58.848Z,22.20
2018-10-18T23:16:27.027Z,22.80
2018-10-18T23:18:55.216Z,22.30
2018-10-18T23:21:23.399Z,23.13
2018-10-18T23:23:51.603Z,24.23
2018-10-18T23:26:19.819Z,23.47
2018-10-18T23:28:48.017Z,24.30
2018-10-18T23:31:16.204Z,25.07
2018-10-18T23:33:44.372Z,23.77
2018-10-18T23:36:12.580Z,25.07
2018-10-18T23:38:40.754Z,25.03
2018-10-18T23:41:08.984Z,25.80
2018-10-18T23:43:37.096Z,25.93
2018-10-18T23:46:05.578Z,25.50
2018-10-18T23:48:33.759Z,27.40
2018-10-18T23:51:01.984Z,27.43
2018-10-18T23:53:30.151Z,27.30
2018-10-18T23:55:58.360Z,29.27
2018-10-18T23:58:26.551Z,28.80
